sensor_id;sensor_type;location;lat;lon;timestamp;temperature;humidity
38436;DHT22;24220;48.168;14.024;2023-02-01T00:01:27;8.70;67.00
38436;DHT22;24220;48.168;14.024;2023-02-01T00:03:55;8.70;67.00
38436;DHT22;24220;48.168;14.024;2023-02-01T00:06:22;8.70;66.90
38436;DHT22;24220;48.168;14.024;2023-02-01T00:08:53;8.80;66.80
38436;DHT22;24220;48.168;14.024;2023-02-01T00:11:22;8.80;66.90
38436;DHT22;24220;48.168;14.024;2023-02-01T00:13:50;8.80;66.90
38436;DHT22;24220;48.168;14.024;2023-02-01T00:16:19;8.80;66.90
38436;DHT22;24220;48.168;14.024;2023-02-01T00:18:50;8.80;66.90
38436;DHT22;24220;48.168;14.024;2023-02-01T00:21:19;8.80;66.90
38436;DHT22;24220;48.168;14.024;2023-02-01T00:23:50;8.90;66.80
38436;DHT22;24220;48.168;14.024;2023-02-01T00:26:20;8.90;66.70
38436;DHT22;24220;48.168;14.024;2023-02-01T00:28:49;8.90;66.80
38436;DHT22;24220;48.168;14.024;2023-02-01T00:31:17;8.90;66.70
38436;DHT22;24220;48.168;14.024;2023-02-01T00:33:47;8.90;66.80
38436;DHT22;24220;48.168;14.024;2023-02-01T00:36:15;8.90;66.80
38436;DHT22;24220;48.168;14.024;2023-02-01T00:38:45;8.90;66.80
38436;DHT22;24220;48.168;14.024;2023-02-01T00:41:18;8.90;66.80
38436;DHT22;24220;48.168;14.024;2023-02-01T00:43:46;8.90;66.80
38436;DHT22;24220;48.168;14.024;2023-02-01T00:46:16;8.90;66.90
38436;DHT22;24220;48.168;14.024;2023-02-01T00:48:44;8.90;66.80
38436;DHT22;24220;48.168;14.024;2023-02-01T00:51:16;8.90;66.90
38436;DHT22;24220;48.168;14.024;2023-02-01T00:53:44;8.80;67.00
38436;DHT22;24220;48.168;14.024;2023-02-01T00:56:12;8.80;66.90
38436;DHT22;24220;48.168;14.024;2023-02-01T00:58:43;8.80;67.20
38436;DHT22;24220;48.168;14.024;2023-02-01T01:01:18;8.80;67.10
38436;DHT22;24220;48.168;14.024;2023-02-01T01:03:57;8.80;67.30
38436;DHT22;24220;48.168;14.024;2023-02-01T01:06:27;8.80;67.90
38436;DHT22;24220;48.168;14.024;2023-02-01T01:08:57;8.70;67.30
38436;DHT22;24220;48.168;14.024;2023-02-01T01:11:30;8.70;67.40
38436;DHT22;24220;48.168;14.024;2023-02-01T01:13:59;8.70;67.40
38436;DHT22;24220;48.168;14.024;2023-02-01T01:16:28;8.70;67.50
38436;DHT22;24220;48.168;14.024;2023-02-01T01:18:56;8.70;67.50
38436;DHT22;24220;48.168;14.024;2023-02-01T01:21:27;8.70;67.60
38436;DHT22;24220;48.168;14.024;2023-02-01T01:23:59;8.70;67.50
38436;DHT22;24220;48.168;14.024;2023-02-01T01:26:27;8.70;67.60
38436;DHT22;24220;48.168;14.024;2023-02-01T01:28:56;8.70;67.60
38436;DHT22;24220;48.168;14.024;2023-02-01T01:31:26;8.70;67.80
38436;DHT22;24220;48.168;14.024;2023-02-01T01:33:56;8.70;67.80
38436;DHT22;24220;48.168;14.024;2023-02-01T01:36:27;8.60;67.80
38436;DHT22;24220;48.168;14.024;2023-02-01T01:38:54;8.70;68.10
38436;DHT22;24220;48.168;14.024;2023-02-01T01:41:26;8.60;68.10
38436;DHT22;24220;48.168;14.024;2023-02-01T01:46:36;8.50;68.20
38436;DHT22;24220;48.168;14.024;2023-02-01T01:49:24;8.50;68.30
38436;DHT22;24220;48.168;14.024;2023-02-01T01:51:58;8.50;68.40
38436;DHT22;24220;48.168;14.024;2023-02-01T01:54:34;8.50;68.30
38436;DHT22;24220;48.168;14.024;2023-02-01T01:57:11;8.50;68.30
38436;DHT22;24220;48.168;14.024;2023-02-01T01:59:41;8.50;68.40
38436;DHT22;24220;48.168;14.024;2023-02-01T02:02:11;8.50;68.30
38436;DHT22;24220;48.168;14.024;2023-02-01T02:04:44;8.50;68.40
38436;DHT22;24220;48.168;14.024;2023-02-01T02:07:24;8.50;68.40
38436;DHT22;24220;48.168;14.024;2023-02-01T02:09:52;8.40;68.50
38436;DHT22;24220;48.168;14.024;2023-02-01T02:12:28;8.50;68.40
38436;DHT22;24220;48.168;14.024;2023-02-01T02:14:57;8.50;68.50
38436;DHT22;24220;48.168;14.024;2023-02-01T02:32:09;8.60;68.40
38436;DHT22;24220;48.168;14.024;2023-02-01T02:40:07;8.70;68.20
38436;DHT22;24220;48.168;14.024;2023-02-01T02:43:18;8.70;68.30
38436;DHT22;24220;48.168;14.024;2023-02-01T02:49:10;8.70;68.30
38436;DHT22;24220;48.168;14.024;2023-02-01T02:54:35;8.70;68.30
38436;DHT22;24220;48.168;14.024;2023-02-01T03:00:17;8.70;68.30
38436;DHT22;24220;48.168;14.024;2023-02-01T03:03:04;8.70;68.20
38436;DHT22;24220;48.168;14.024;2023-02-01T03:05:51;8.70;68.20
38436;DHT22;24220;48.168;14.024;2023-02-01T03:13:57;8.80;68.10
38436;DHT22;24220;48.168;14.024;2023-02-01T03:16:33;8.80;68.10
38436;DHT22;24220;48.168;14.024;2023-02-01T03:24:18;8.80;68.20
38436;DHT22;24220;48.168;14.024;2023-02-01T03:26:53;8.80;68.00
38436;DHT22;24220;48.168;14.024;2023-02-01T03:29:32;8.90;68.10
38436;DHT22;24220;48.168;14.024;2023-02-01T03:32:00;8.90;68.00
38436;DHT22;24220;48.168;14.024;2023-02-01T03:34:28;8.90;67.80
38436;DHT22;24220;48.168;14.024;2023-02-01T03:37:00;8.90;67.60
38436;DHT22;24220;48.168;14.024;2023-02-01T03:39:37;9.00;67.50
38436;DHT22;24220;48.168;14.024;2023-02-01T03:42:12;9.00;67.40
38436;DHT22;24220;48.168;14.024;2023-02-01T03:44:49;9.00;67.40
38436;DHT22;24220;48.168;14.024;2023-02-01T03:47:24;9.00;67.30
38436;DHT22;24220;48.168;14.024;2023-02-01T03:50:00;9.00;67.00
38436;DHT22;24220;48.168;14.024;2023-02-01T03:55:15;9.10;66.90
38436;DHT22;24220;48.168;14.024;2023-02-01T04:00:30;9.10;66.80
38436;DHT22;24220;48.168;14.024;2023-02-01T04:02:57;9.10;66.80
38436;DHT22;24220;48.168;14.024;2023-02-01T04:05:27;9.10;66.70
38436;DHT22;24220;48.168;14.024;2023-02-01T04:07:59;9.10;66.50
38436;DHT22;24220;48.168;14.024;2023-02-01T04:10:29;9.10;66.60
38436;DHT22;24220;48.168;14.024;2023-02-01T04:12:56;9.10;66.50
38436;DHT22;24220;48.168;14.024;2023-02-01T04:15:24;9.10;66.30
38436;DHT22;24220;48.168;14.024;2023-02-01T04:17:54;9.10;66.40
38436;DHT22;24220;48.168;14.024;2023-02-01T04:20:21;9.10;66.40
38436;DHT22;24220;48.168;14.024;2023-02-01T04:22:49;9.10;66.40
38436;DHT22;24220;48.168;14.024;2023-02-01T04:25:16;9.00;66.40
38436;DHT22;24220;48.168;14.024;2023-02-01T04:27:44;9.00;66.50
38436;DHT22;24220;48.168;14.024;2023-02-01T04:30:12;9.00;66.50
38436;DHT22;24220;48.168;14.024;2023-02-01T04:32:40;9.00;66.40
38436;DHT22;24220;48.168;14.024;2023-02-01T04:35:09;9.00;66.40
38436;DHT22;24220;48.168;14.024;2023-02-01T04:37:38;9.00;66.40
38436;DHT22;24220;48.168;14.024;2023-02-01T04:40:06;9.00;66.30
38436;DHT22;24220;48.168;14.024;2023-02-01T04:42:36;9.00;66.40
38436;DHT22;24220;48.168;14.024;2023-02-01T04:45:04;9.00;66.40
38436;DHT22;24220;48.168;14.024;2023-02-01T04:47:31;9.00;66.40
38436;DHT22;24220;48.168;14.024;2023-02-01T04:49:58;8.90;66.40
38436;DHT22;24220;48.168;14.024;2023-02-01T04:52:31;8.90;66.50
38436;DHT22;24220;48.168;14.024;2023-02-01T04:54:58;8.90;66.60
38436;DHT22;24220;48.168;14.024;2023-02-01T04:57:27;8.90;66.60
38436;DHT22;24220;48.168;14.024;2023-02-01T04:59:54;8.90;66.70
38436;DHT22;24220;48.168;14.024;2023-02-01T05:02:21;8.90;66.70
38436;DHT22;24220;48.168;14.024;2023-02-01T05:04:49;8.90;66.80
38436;DHT22;24220;48.168;14.024;2023-02-01T05:07:18;8.90;66.80
38436;DHT22;24220;48.168;14.024;2023-02-01T05:09:49;8.90;66.80
38436;DHT22;24220;48.168;14.024;2023-02-01T05:12:18;8.90;66.80
38436;DHT22;24220;48.168;14.024;2023-02-01T05:15:05;8.90;66.90
38436;DHT22;24220;48.168;14.024;2023-02-01T05:17:35;8.90;66.90
38436;DHT22;24220;48.168;14.024;2023-02-01T05:20:02;8.90;66.90
38436;DHT22;24220;48.168;14.024;2023-02-01T05:22:29;8.80;66.90
38436;DHT22;24220;48.168;14.024;2023-02-01T05:24:57;8.80;66.90
38436;DHT22;24220;48.168;14.024;2023-02-01T05:27:24;8.80;67.00
38436;DHT22;24220;48.168;14.024;2023-02-01T05:29:51;8.90;67.10
38436;DHT22;24220;48.168;14.024;2023-02-01T05:32:19;8.80;67.10
38436;DHT22;24220;48.168;14.024;2023-02-01T05:34:49;8.90;67.20
38436;DHT22;24220;48.168;14.024;2023-02-01T05:37:19;8.90;67.20
38436;DHT22;24220;48.168;14.024;2023-02-01T05:39:46;8.90;67.30
38436;DHT22;24220;48.168;14.024;2023-02-01T05:42:14;8.90;67.20
38436;DHT22;24220;48.168;14.024;2023-02-01T05:44:41;8.90;67.20
38436;DHT22;24220;48.168;14.024;2023-02-01T05:47:09;8.90;67.30
38436;DHT22;24220;48.168;14.024;2023-02-01T05:49:36;8.90;67.20
38436;DHT22;24220;48.168;14.024;2023-02-01T05:52:04;9.00;67.10
38436;DHT22;24220;48.168;14.024;2023-02-01T05:54:31;9.00;67.00
38436;DHT22;24220;48.168;14.024;2023-02-01T05:56:58;9.00;67.00
38436;DHT22;24220;48.168;14.024;2023-02-01T05:59:25;9.10;67.00
38436;DHT22;24220;48.168;14.024;2023-02-01T06:01:55;9.00;66.80
38436;DHT22;24220;48.168;14.024;2023-02-01T06:04:23;9.10;66.80
38436;DHT22;24220;48.168;14.024;2023-02-01T06:06:52;9.10;66.70
38436;DHT22;24220;48.168;14.024;2023-02-01T06:09:26;9.10;66.60
38436;DHT22;24220;48.168;14.024;2023-02-01T06:11:55;9.10;66.50
38436;DHT22;24220;48.168;14.024;2023-02-01T06:14:22;9.20;66.50
38436;DHT22;24220;48.168;14.024;2023-02-01T06:16:50;9.20;66.50
38436;DHT22;24220;48.168;14.024;2023-02-01T06:19:18;9.20;66.50
38436;DHT22;24220;48.168;14.024;2023-02-01T06:21:45;9.20;66.40
38436;DHT22;24220;48.168;14.024;2023-02-01T06:24:14;9.20;66.30
38436;DHT22;24220;48.168;14.024;2023-02-01T06:26:42;9.20;66.20
38436;DHT22;24220;48.168;14.024;2023-02-01T06:29:10;9.20;66.10
38436;DHT22;24220;48.168;14.024;2023-02-01T06:31:37;9.20;66.20
38436;DHT22;24220;48.168;14.024;2023-02-01T06:34:04;9.20;66.10
38436;DHT22;24220;48.168;14.024;2023-02-01T06:36:34;9.20;66.00
38436;DHT22;24220;48.168;14.024;2023-02-01T06:39:01;9.20;66.00
38436;DHT22;24220;48.168;14.024;2023-02-01T06:41:28;9.20;66.00
38436;DHT22;24220;48.168;14.024;2023-02-01T06:43:56;9.20;65.90
38436;DHT22;24220;48.168;14.024;2023-02-01T06:46:23;9.20;65.90
38436;DHT22;24220;48.168;14.024;2023-02-01T06:48:53;9.20;65.90
38436;DHT22;24220;48.168;14.024;2023-02-01T06:51:23;9.20;65.90
38436;DHT22;24220;48.168;14.024;2023-02-01T06:53:51;9.20;65.90
38436;DHT22;24220;48.168;14.024;2023-02-01T06:56:18;9.30;65.90
38436;DHT22;24220;48.168;14.024;2023-02-01T06:58:47;9.30;65.80
38436;DHT22;24220;48.168;14.024;2023-02-01T07:01:16;9.30;65.60
38436;DHT22;24220;48.168;14.024;2023-02-01T07:03:50;9.30;65.60
38436;DHT22;24220;48.168;14.024;2023-02-01T07:06:18;9.30;65.70
38436;DHT22;24220;48.168;14.024;2023-02-01T07:08:48;9.30;65.70
38436;DHT22;24220;48.168;14.024;2023-02-01T07:11:17;9.30;65.60
38436;DHT22;24220;48.168;14.024;2023-02-01T07:13:45;9.30;65.50
38436;DHT22;24220;48.168;14.024;2023-02-01T07:16:15;9.30;65.50
38436;DHT22;24220;48.168;14.024;2023-02-01T07:18:43;9.30;65.60
38436;DHT22;24220;48.168;14.024;2023-02-01T07:21:11;9.30;65.50
38436;DHT22;24220;48.168;14.024;2023-02-01T07:23:41;9.30;65.60
38436;DHT22;24220;48.168;14.024;2023-02-01T07:26:11;9.30;65.70
38436;DHT22;24220;48.168;14.024;2023-02-01T07:28:40;9.40;65.90
38436;DHT22;24220;48.168;14.024;2023-02-01T07:31:13;9.40;65.80
38436;DHT22;24220;48.168;14.024;2023-02-01T07:33:42;9.40;65.60
38436;DHT22;24220;48.168;14.024;2023-02-01T07:36:15;9.40;65.70
38436;DHT22;24220;48.168;14.024;2023-02-01T07:38:43;9.50;66.00
38436;DHT22;24220;48.168;14.024;2023-02-01T07:41:13;9.50;65.80
38436;DHT22;24220;48.168;14.024;2023-02-01T07:43:40;9.50;66.00
38436;DHT22;24220;48.168;14.024;2023-02-01T07:46:09;9.50;65.70
38436;DHT22;24220;48.168;14.024;2023-02-01T07:48:36;9.50;65.40
38436;DHT22;24220;48.168;14.024;2023-02-01T07:51:08;9.50;65.30
38436;DHT22;24220;48.168;14.024;2023-02-01T07:53:36;9.50;65.20
38436;DHT22;24220;48.168;14.024;2023-02-01T07:56:14;9.60;65.20
38436;DHT22;24220;48.168;14.024;2023-02-01T07:58:41;9.60;64.90
38436;DHT22;24220;48.168;14.024;2023-02-01T08:01:21;9.60;64.80
38436;DHT22;24220;48.168;14.024;2023-02-01T08:03:57;9.60;65.00
38436;DHT22;24220;48.168;14.024;2023-02-01T08:06:28;9.60;64.80
38436;DHT22;24220;48.168;14.024;2023-02-01T08:08:58;9.60;64.60
38436;DHT22;24220;48.168;14.024;2023-02-01T08:11:26;9.60;64.60
38436;DHT22;24220;48.168;14.024;2023-02-01T08:13:53;9.70;64.60
38436;DHT22;24220;48.168;14.024;2023-02-01T08:16:22;9.70;64.30
38436;DHT22;24220;48.168;14.024;2023-02-01T08:18:51;9.70;64.50
38436;DHT22;24220;48.168;14.024;2023-02-01T08:21:22;9.70;64.30
38436;DHT22;24220;48.168;14.024;2023-02-01T08:23:49;9.70;64.10
38436;DHT22;24220;48.168;14.024;2023-02-01T08:26:25;9.70;63.70
38436;DHT22;24220;48.168;14.024;2023-02-01T08:28:58;9.70;63.40
38436;DHT22;24220;48.168;14.024;2023-02-01T08:31:28;9.70;63.30
38436;DHT22;24220;48.168;14.024;2023-02-01T08:33:59;9.70;63.50
38436;DHT22;24220;48.168;14.024;2023-02-01T08:36:29;9.80;63.90
38436;DHT22;24220;48.168;14.024;2023-02-01T08:38:56;9.70;63.10
38436;DHT22;24220;48.168;14.024;2023-02-01T08:41:26;9.80;63.20
38436;DHT22;24220;48.168;14.024;2023-02-01T08:43:54;9.80;63.10
38436;DHT22;24220;48.168;14.024;2023-02-01T08:46:22;9.80;63.10
38436;DHT22;24220;48.168;14.024;2023-02-01T08:48:50;9.80;63.00
38436;DHT22;24220;48.168;14.024;2023-02-01T08:51:22;9.80;62.90
38436;DHT22;24220;48.168;14.024;2023-02-01T08:53:50;9.80;62.90
38436;DHT22;24220;48.168;14.024;2023-02-01T08:56:22;9.80;62.90
38436;DHT22;24220;48.168;14.024;2023-02-01T08:58:49;9.90;62.60
38436;DHT22;24220;48.168;14.024;2023-02-01T09:01:17;9.80;62.50
38436;DHT22;24220;48.168;14.024;2023-02-01T09:03:44;9.90;62.60
38436;DHT22;24220;48.168;14.024;2023-02-01T09:06:19;9.90;62.10
38436;DHT22;24220;48.168;14.024;2023-02-01T09:08:47;9.90;62.60
38436;DHT22;24220;48.168;14.024;2023-02-01T09:11:16;9.90;62.60
38436;DHT22;24220;48.168;14.024;2023-02-01T09:13:44;9.90;62.60
38436;DHT22;24220;48.168;14.024;2023-02-01T09:16:12;9.90;62.70
38436;DHT22;24220;48.168;14.024;2023-02-01T09:18:39;9.90;62.80
38436;DHT22;24220;48.168;14.024;2023-02-01T09:21:27;9.90;62.80
38436;DHT22;24220;48.168;14.024;2023-02-01T09:23:54;10.00;63.20
38436;DHT22;24220;48.168;14.024;2023-02-01T09:26:24;9.90;63.50
38436;DHT22;24220;48.168;14.024;2023-02-01T09:29:02;10.00;63.80
38436;DHT22;24220;48.168;14.024;2023-02-01T09:31:30;9.90;63.60
38436;DHT22;24220;48.168;14.024;2023-02-01T09:34:00;9.90;63.70
38436;DHT22;24220;48.168;14.024;2023-02-01T09:36:30;9.90;63.90
38436;DHT22;24220;48.168;14.024;2023-02-01T09:38:58;9.90;64.20
38436;DHT22;24220;48.168;14.024;2023-02-01T09:45:14;9.90;64.90
38436;DHT22;24220;48.168;14.024;2023-02-01T09:47:51;10.00;65.10
38436;DHT22;24220;48.168;14.024;2023-02-01T09:50:22;10.00;65.30
38436;DHT22;24220;48.168;14.024;2023-02-01T09:53:02;10.00;65.40
38436;DHT22;24220;48.168;14.024;2023-02-01T09:58:02;10.00;66.20
38436;DHT22;24220;48.168;14.024;2023-02-01T10:00:37;10.00;65.50
38436;DHT22;24220;48.168;14.024;2023-02-01T10:03:11;10.00;65.50
38436;DHT22;24220;48.168;14.024;2023-02-01T10:10:49;10.00;65.60
38436;DHT22;24220;48.168;14.024;2023-02-01T10:13:41;10.00;65.50
38436;DHT22;24220;48.168;14.024;2023-02-01T10:16:37;10.00;65.80
38436;DHT22;24220;48.168;14.024;2023-02-01T10:22:09;10.10;65.50
38436;DHT22;24220;48.168;14.024;2023-02-01T10:27:35;10.10;65.60
38436;DHT22;24220;48.168;14.024;2023-02-01T10:32:43;10.10;66.00
38436;DHT22;24220;48.168;14.024;2023-02-01T10:35:17;10.10;66.00
38436;DHT22;24220;48.168;14.024;2023-02-01T10:37:45;10.10;66.00
38436;DHT22;24220;48.168;14.024;2023-02-01T10:40:23;10.10;65.80
38436;DHT22;24220;48.168;14.024;2023-02-01T10:42:54;10.10;65.90
38436;DHT22;24220;48.168;14.024;2023-02-01T10:45:24;10.10;65.80
38436;DHT22;24220;48.168;14.024;2023-02-01T10:47:53;10.10;65.90
38436;DHT22;24220;48.168;14.024;2023-02-01T10:51:05;10.10;65.90
38436;DHT22;24220;48.168;14.024;2023-02-01T10:53:31;10.10;65.60
38436;DHT22;24220;48.168;14.024;2023-02-01T10:56:07;10.20;65.10
38436;DHT22;24220;48.168;14.024;2023-02-01T10:58:36;10.20;64.90
38436;DHT22;24220;48.168;14.024;2023-02-01T11:01:17;10.20;64.80
38436;DHT22;24220;48.168;14.024;2023-02-01T11:04:02;10.20;65.00
38436;DHT22;24220;48.168;14.024;2023-02-01T11:06:38;10.20;65.00
38436;DHT22;24220;48.168;14.024;2023-02-01T11:16:57;10.30;64.30
38436;DHT22;24220;48.168;14.024;2023-02-01T11:19:27;10.40;64.50
38436;DHT22;24220;48.168;14.024;2023-02-01T11:21:59;10.40;64.30
38436;DHT22;24220;48.168;14.024;2023-02-01T11:24:32;10.40;64.20
38436;DHT22;24220;48.168;14.024;2023-02-01T11:27:04;10.40;64.50
38436;DHT22;24220;48.168;14.024;2023-02-01T11:29:41;10.50;64.90
38436;DHT22;24220;48.168;14.024;2023-02-01T11:32:14;10.60;64.90
38436;DHT22;24220;48.168;14.024;2023-02-01T11:34:56;10.70;64.50
38436;DHT22;24220;48.168;14.024;2023-02-01T11:37:37;10.80;64.40
38436;DHT22;24220;48.168;14.024;2023-02-01T11:45:31;11.00;63.70
38436;DHT22;24220;48.168;14.024;2023-02-01T11:48:15;11.10;63.90
38436;DHT22;24220;48.168;14.024;2023-02-01T12:02:56;11.30;62.60
38436;DHT22;24220;48.168;14.024;2023-02-01T12:39:02;11.80;59.70
38436;DHT22;24220;48.168;14.024;2023-02-01T12:41:56;11.70;59.50
38436;DHT22;24220;48.168;14.024;2023-02-01T12:53:19;11.70;59.50
38436;DHT22;24220;48.168;14.024;2023-02-01T12:55:57;11.70;59.70
38436;DHT22;24220;48.168;14.024;2023-02-01T12:58:44;11.80;59.70
38436;DHT22;24220;48.168;14.024;2023-02-01T13:01:17;11.70;59.50
38436;DHT22;24220;48.168;14.024;2023-02-01T13:06:33;11.80;59.50
38436;DHT22;24220;48.168;14.024;2023-02-01T13:12:49;11.80;59.50
38436;DHT22;24220;48.168;14.024;2023-02-01T13:17:32;11.80;59.20
38436;DHT22;24220;48.168;14.024;2023-02-01T13:22:47;11.80;59.20
38436;DHT22;24220;48.168;14.024;2023-02-01T13:25:37;11.70;59.20
38436;DHT22;24220;48.168;14.024;2023-02-01T13:28:36;11.70;59.60
38436;DHT22;24220;48.168;14.024;2023-02-01T13:31:23;11.70;59.40
38436;DHT22;24220;48.168;14.024;2023-02-01T13:39:48;11.60;59.70
38436;DHT22;24220;48.168;14.024;2023-02-01T13:42:25;11.50;60.20
38436;DHT22;24220;48.168;14.024;2023-02-01T13:44:57;11.50;60.50
38436;DHT22;24220;48.168;14.024;2023-02-01T13:47:43;11.40;60.60
38436;DHT22;24220;48.168;14.024;2023-02-01T13:50:32;11.40;60.50
38436;DHT22;24220;48.168;14.024;2023-02-01T13:55:41;11.30;61.20
38436;DHT22;24220;48.168;14.024;2023-02-01T14:03:52;11.20;62.00
38436;DHT22;24220;48.168;14.024;2023-02-01T14:11:50;11.10;62.90
38436;DHT22;24220;48.168;14.024;2023-02-01T14:24:42;10.70;64.20
38436;DHT22;24220;48.168;14.024;2023-02-01T14:27:25;10.70;64.50
38436;DHT22;24220;48.168;14.024;2023-02-01T14:29:58;10.60;64.90
38436;DHT22;24220;48.168;14.024;2023-02-01T14:32:37;10.50;64.90
38436;DHT22;24220;48.168;14.024;2023-02-01T14:35:27;10.50;65.10
38436;DHT22;24220;48.168;14.024;2023-02-01T14:38:00;10.50;65.30
38436;DHT22;24220;48.168;14.024;2023-02-01T14:40:30;10.40;65.00
38436;DHT22;24220;48.168;14.024;2023-02-01T14:43:00;10.40;65.10
38436;DHT22;24220;48.168;14.024;2023-02-01T14:50:47;10.40;65.20
38436;DHT22;24220;48.168;14.024;2023-02-01T14:53:21;10.40;64.70
38436;DHT22;24220;48.168;14.024;2023-02-01T14:56:11;10.50;64.60
38436;DHT22;24220;48.168;14.024;2023-02-01T14:58:56;10.50;64.80
38436;DHT22;24220;48.168;14.024;2023-02-01T15:06:40;10.50;64.30
38436;DHT22;24220;48.168;14.024;2023-02-01T15:11:57;10.40;63.70
38436;DHT22;24220;48.168;14.024;2023-02-01T15:14:33;10.40;63.90
38436;DHT22;24220;48.168;14.024;2023-02-01T15:17:01;10.50;63.50
38436;DHT22;24220;48.168;14.024;2023-02-01T15:19:29;10.40;63.50
38436;DHT22;24220;48.168;14.024;2023-02-01T15:22:00;10.50;63.90
38436;DHT22;24220;48.168;14.024;2023-02-01T15:24:29;10.50;63.70
38436;DHT22;24220;48.168;14.024;2023-02-01T15:27:04;10.50;63.30
38436;DHT22;24220;48.168;14.024;2023-02-01T15:29:32;10.40;62.80
38436;DHT22;24220;48.168;14.024;2023-02-01T15:32:00;10.50;62.90
38436;DHT22;24220;48.168;14.024;2023-02-01T15:34:48;10.50;62.70
38436;DHT22;24220;48.168;14.024;2023-02-01T15:37:20;10.50;62.60
38436;DHT22;24220;48.168;14.024;2023-02-01T15:42:54;10.50;61.70
38436;DHT22;24220;48.168;14.024;2023-02-01T15:45:29;10.50;62.00
38436;DHT22;24220;48.168;14.024;2023-02-01T15:47:59;10.50;61.60
38436;DHT22;24220;48.168;14.024;2023-02-01T15:50:30;10.50;61.80
38436;DHT22;24220;48.168;14.024;2023-02-01T15:53:00;10.50;61.60
38436;DHT22;24220;48.168;14.024;2023-02-01T15:55:37;10.50;61.70
38436;DHT22;24220;48.168;14.024;2023-02-01T15:58:20;10.50;61.80
38436;DHT22;24220;48.168;14.024;2023-02-01T16:00:58;10.50;61.40
38436;DHT22;24220;48.168;14.024;2023-02-01T16:03:42;10.40;61.30
38436;DHT22;24220;48.168;14.024;2023-02-01T16:06:25;10.40;61.60
38436;DHT22;24220;48.168;14.024;2023-02-01T16:09:09;10.40;61.20
38436;DHT22;24220;48.168;14.024;2023-02-01T16:11:58;10.40;61.10
38436;DHT22;24220;48.168;14.024;2023-02-01T16:14:26;10.40;61.20
38436;DHT22;24220;48.168;14.024;2023-02-01T16:16:57;10.40;61.30
38436;DHT22;24220;48.168;14.024;2023-02-01T16:19:24;10.40;61.20
38436;DHT22;24220;48.168;14.024;2023-02-01T16:21:57;10.40;61.40
38436;DHT22;24220;48.168;14.024;2023-02-01T16:24:25;10.40;61.00
38436;DHT22;24220;48.168;14.024;2023-02-01T16:26:53;10.30;60.90
38436;DHT22;24220;48.168;14.024;2023-02-01T16:29:23;10.30;60.80
38436;DHT22;24220;48.168;14.024;2023-02-01T16:31:53;10.30;60.60
38436;DHT22;24220;48.168;14.024;2023-02-01T16:34:20;10.30;60.60
38436;DHT22;24220;48.168;14.024;2023-02-01T16:36:48;10.30;60.90
38436;DHT22;24220;48.168;14.024;2023-02-01T16:39:20;10.30;60.80
38436;DHT22;24220;48.168;14.024;2023-02-01T16:41:47;10.30;60.60
38436;DHT22;24220;48.168;14.024;2023-02-01T16:44:15;10.40;60.80
38436;DHT22;24220;48.168;14.024;2023-02-01T16:46:48;10.30;60.60
38436;DHT22;24220;48.168;14.024;2023-02-01T16:49:22;10.40;60.60
38436;DHT22;24220;48.168;14.024;2023-02-01T16:51:51;10.30;60.60
38436;DHT22;24220;48.168;14.024;2023-02-01T16:54:22;10.40;60.60
38436;DHT22;24220;48.168;14.024;2023-02-01T16:56:50;10.40;60.70
38436;DHT22;24220;48.168;14.024;2023-02-01T16:59:17;10.40;60.80
38436;DHT22;24220;48.168;14.024;2023-02-01T17:01:44;10.40;61.00
38436;DHT22;24220;48.168;14.024;2023-02-01T17:04:14;10.40;60.90
38436;DHT22;24220;48.168;14.024;2023-02-01T17:06:43;10.40;60.90
38436;DHT22;24220;48.168;14.024;2023-02-01T17:09:14;10.40;60.80
38436;DHT22;24220;48.168;14.024;2023-02-01T17:11:41;10.40;60.80
38436;DHT22;24220;48.168;14.024;2023-02-01T17:14:20;10.40;60.10
38436;DHT22;24220;48.168;14.024;2023-02-01T17:16:52;10.40;60.50
38436;DHT22;24220;48.168;14.024;2023-02-01T17:19:22;10.40;60.30
38436;DHT22;24220;48.168;14.024;2023-02-01T17:21:53;10.40;60.20
38436;DHT22;24220;48.168;14.024;2023-02-01T17:24:26;10.40;60.50
38436;DHT22;24220;48.168;14.024;2023-02-01T17:27:02;10.40;60.40
38436;DHT22;24220;48.168;14.024;2023-02-01T17:29:30;10.40;60.50
38436;DHT22;24220;48.168;14.024;2023-02-01T17:32:00;10.40;60.30
38436;DHT22;24220;48.168;14.024;2023-02-01T17:34:31;10.40;60.30
38436;DHT22;24220;48.168;14.024;2023-02-01T17:36:58;10.40;60.20
38436;DHT22;24220;48.168;14.024;2023-02-01T17:39:28;10.30;60.00
38436;DHT22;24220;48.168;14.024;2023-02-01T17:42:16;10.30;60.00
38436;DHT22;24220;48.168;14.024;2023-02-01T17:44:43;10.30;60.10
38436;DHT22;24220;48.168;14.024;2023-02-01T17:47:11;10.30;60.30
38436;DHT22;24220;48.168;14.024;2023-02-01T17:49:38;10.30;60.00
38436;DHT22;24220;48.168;14.024;2023-02-01T17:52:14;10.30;60.30
38436;DHT22;24220;48.168;14.024;2023-02-01T17:54:42;10.30;60.40
38436;DHT22;24220;48.168;14.024;2023-02-01T17:57:15;10.30;60.40
38436;DHT22;24220;48.168;14.024;2023-02-01T17:59:45;10.30;60.40
38436;DHT22;24220;48.168;14.024;2023-02-01T18:02:21;10.30;60.50
38436;DHT22;24220;48.168;14.024;2023-02-01T18:04:49;10.30;60.80
38436;DHT22;24220;48.168;14.024;2023-02-01T18:07:19;10.30;60.60
38436;DHT22;24220;48.168;14.024;2023-02-01T18:09:47;10.30;60.70
38436;DHT22;24220;48.168;14.024;2023-02-01T18:12:22;10.30;60.80
38436;DHT22;24220;48.168;14.024;2023-02-01T18:14:51;10.30;60.80
38436;DHT22;24220;48.168;14.024;2023-02-01T18:17:18;10.30;60.70
38436;DHT22;24220;48.168;14.024;2023-02-01T18:19:46;10.20;60.50
38436;DHT22;24220;48.168;14.024;2023-02-01T18:22:16;10.30;60.60
38436;DHT22;24220;48.168;14.024;2023-02-01T18:24:46;10.20;60.70
38436;DHT22;24220;48.168;14.024;2023-02-01T18:27:16;10.20;60.80
38436;DHT22;24220;48.168;14.024;2023-02-01T18:29:43;10.30;61.00
38436;DHT22;24220;48.168;14.024;2023-02-01T18:32:10;10.20;60.90
38436;DHT22;24220;48.168;14.024;2023-02-01T18:34:38;10.20;60.90
38436;DHT22;24220;48.168;14.024;2023-02-01T18:37:10;10.20;60.50
38436;DHT22;24220;48.168;14.024;2023-02-01T18:39:40;10.20;60.60
38436;DHT22;24220;48.168;14.024;2023-02-01T18:42:08;10.20;60.60
38436;DHT22;24220;48.168;14.024;2023-02-01T18:44:39;10.10;60.60
38436;DHT22;24220;48.168;14.024;2023-02-01T18:47:07;10.20;60.60
38436;DHT22;24220;48.168;14.024;2023-02-01T18:49:34;10.10;60.40
38436;DHT22;24220;48.168;14.024;2023-02-01T18:52:03;10.10;60.40
38436;DHT22;24220;48.168;14.024;2023-02-01T18:54:32;10.20;60.10
38436;DHT22;24220;48.168;14.024;2023-02-01T18:57:02;10.20;60.00
38436;DHT22;24220;48.168;14.024;2023-02-01T18:59:29;10.20;60.20
38436;DHT22;24220;48.168;14.024;2023-02-01T19:01:56;10.20;60.30
38436;DHT22;24220;48.168;14.024;2023-02-01T19:04:23;10.10;59.70
38436;DHT22;24220;48.168;14.024;2023-02-01T19:06:52;10.10;60.00